Terminal Aerodrome Forecast
Issued by NWS

Home | Current Version | Previous Version | Text Only | Print | Product List | Glossary On
Versions: 1 2 3 4 5 6 7 8 9 10 11 12 13 14 15 16 17 18 19
110
FTUS43 KICT 201733
TAFHUT
TAF
KHUT 201733Z 2018/2118 12005KT 5SM BR BKN006 OVC015
     FM202000 18007KT P6SM BKN015
     FM210200 23005KT P6SM SCT035
     FM210900 25006KT 5SM BR SCT200
     FM211300 26005KT 1 1/2SM BR FEW040
     FM211500 25004KT P6SM FEW045=

USA.gov is the U.S. government's official web portal to all federal, state and local government web resources and services.